Rainbow, California
Current Conditions -  °F | °C
As of 11:55 AM on Saturday 25 Oct 2014 (Local Time) from KL18 Reporting Station
Clear Clear  
Wind Chill: 79°   Ceiling: Unl
Heat Index: 79°   Visibility: 10mi
Dew Point: 46°   Wind: 5mph
Humidity: 32%   Direction: 190°S
Pressure: 30.06"   Gusts: NA
Location:  33.3988°N, 117.264°W
Report Text: KL18 251855Z AUTO 19004KT 10SM CLR 26/08 A3006 RMK AO2
Loading
Personal Weather Stations






























Interactive Weather Map
Tropical Storm Tracking
New forecast layout! Learn more

10-Day Weather Forecast

Advertisements
Track Severe Weather on mobile